createdAt,value
2019-04-07T00:02:34.506Z,4.67
2019-04-07T00:05:24.650Z,3.60
2019-04-07T00:08:15.079Z,7.67
2019-04-07T00:11:05.752Z,4.57
2019-04-07T00:13:56.251Z,4.20
2019-04-07T00:16:47.132Z,3.63
2019-04-07T00:19:38.989Z,4.97
2019-04-07T00:22:31.472Z,3.43
2019-04-07T00:25:22.707Z,5.77
2019-04-07T00:28:13.209Z,4.90
2019-04-07T00:31:04.187Z,5.73
2019-04-07T00:33:54.669Z,4.57
2019-04-07T00:36:45.899Z,6.73
2019-04-07T00:39:36.718Z,6.23
2019-04-07T00:42:27.408Z,6.77
2019-04-07T00:45:18.444Z,5.17
2019-04-07T00:48:09.060Z,4.47
2019-04-07T00:51:00.291Z,9.77
2019-04-07T00:53:51.929Z,4.27
2019-04-07T00:56:42.341Z,4.57
2019-04-07T00:59:33.541Z,4.63
2019-04-07T01:02:24.463Z,6.13
2019-04-07T01:05:15.425Z,6.73
2019-04-07T01:08:07.109Z,4.97
2019-04-07T01:10:58.330Z,4.40
2019-04-07T01:13:50.530Z,4.83
2019-04-07T01:16:41.758Z,6.03
2019-04-07T01:19:33.291Z,6.80
2019-04-07T01:22:22.767Z,5.27
2019-04-07T01:25:14.949Z,4.23
2019-04-07T01:28:05.463Z,5.90
2019-04-07T01:30:56.805Z,5.20
2019-04-07T01:33:46.872Z,5.13
2019-04-07T01:36:37.269Z,6.33
2019-04-07T01:39:27.649Z,5.10
2019-04-07T01:42:24.709Z,5.97
2019-04-07T01:45:31.919Z,5.17
2019-04-07T01:48:50.109Z,4.30
2019-04-07T01:51:59.773Z,7.67
2019-04-07T01:55:07.009Z,5.70
2019-04-07T01:58:15.570Z,12.47
2019-04-07T02:01:51.793Z,5.93
2019-04-07T02:05:01.820Z,4.50
2019-04-07T02:08:10.966Z,6.17
2019-04-07T02:11:18.731Z,6.03
2019-04-07T02:14:20.185Z,6.80
2019-04-07T02:17:21.958Z,3.93
2019-04-07T02:20:47.760Z,3.73
2019-04-07T02:24:12.872Z,3.90
2019-04-07T02:27:25.222Z,4.10
2019-04-07T02:30:43.342Z,3.80
2019-04-07T02:33:42.454Z,4.47
2019-04-07T02:36:56.029Z,4.17
2019-04-07T02:39:54.805Z,4.13
2019-04-07T02:42:50.374Z,4.97
2019-04-07T02:45:57.926Z,3.57
2019-04-07T02:49:10.767Z,4.00
2019-04-07T02:52:14.954Z,6.73
2019-04-07T02:55:26.573Z,6.47
2019-04-07T02:58:27.661Z,5.57
2019-04-07T03:01:27.676Z,4.77
2019-04-07T03:04:40.244Z,4.37
2019-04-07T03:07:47.243Z,10.00
2019-04-07T03:10:57.082Z,4.57
2019-04-07T03:14:03.648Z,4.13
2019-04-07T03:17:20.069Z,4.33
2019-04-07T03:20:26.928Z,4.37
2019-04-07T03:23:39.281Z,4.80
2019-04-07T03:26:47.839Z,8.20
2019-04-07T03:29:56.697Z,4.20
2019-04-07T03:33:08.585Z,4.83
2019-04-07T03:36:10.351Z,4.50
2019-04-07T03:39:20.722Z,3.40
2019-04-07T03:42:19.992Z,4.43
2019-04-07T03:45:32.347Z,4.77
2019-04-07T03:48:28.355Z,6.27
2019-04-07T03:51:33.528Z,4.73
2019-04-07T03:54:43.270Z,4.10
2019-04-07T03:57:42.002Z,3.93
2019-04-07T04:01:17.994Z,5.40
2019-04-07T04:04:30.181Z,4.23
2019-04-07T04:07:32.337Z,4.63
2019-04-07T04:10:34.412Z,5.67
2019-04-07T04:13:31.302Z,7.30
2019-04-07T04:16:36.142Z,3.90
2019-04-07T04:19:27.137Z,4.93
2019-04-07T04:22:18.794Z,5.53
2019-04-07T04:25:10.745Z,4.93
2019-04-07T04:28:02.002Z,5.60
2019-04-07T04:30:51.338Z,9.87
2019-04-07T04:33:42.203Z,5.13
2019-04-07T04:36:33.498Z,5.73
2019-04-07T04:39:24.930Z,5.13
2019-04-07T04:42:14.847Z,4.60
2019-04-07T04:45:06.988Z,5.20
2019-04-07T04:47:56.885Z,4.33
2019-04-07T04:50:49.060Z,4.20
2019-04-07T04:53:38.575Z,4.27
2019-04-07T04:56:29.523Z,8.27
2019-04-07T04:59:20.376Z,8.17
2019-04-07T05:02:12.062Z,4.83
2019-04-07T05:05:03.903Z,7.23
2019-04-07T05:08:00.760Z,6.80
2019-04-07T05:10:47.143Z,6.60
2019-04-07T05:13:39.000Z,5.43
2019-04-07T05:16:29.640Z,6.60
2019-04-07T05:19:19.440Z,6.10
2019-04-07T05:22:11.222Z,5.20
2019-04-07T05:25:02.480Z,5.03
2019-04-07T05:27:53.627Z,4.93
2019-04-07T05:30:44.112Z,5.13
2019-04-07T05:33:35.562Z,5.60
2019-04-07T05:36:26.857Z,6.70
2019-04-07T05:39:17.417Z,5.10
2019-04-07T05:42:09.059Z,13.20
2019-04-07T05:44:59.647Z,5.37
2019-04-07T05:47:51.750Z,4.50
2019-04-07T05:50:42.881Z,4.40
2019-04-07T05:53:34.465Z,4.70
2019-04-07T05:56:28.105Z,5.40
2019-04-07T05:59:17.657Z,4.63
2019-04-07T06:02:08.951Z,5.57
2019-04-07T06:05:00.401Z,4.67
2019-04-07T06:07:51.540Z,4.63
2019-04-07T06:10:42.342Z,6.37
2019-04-07T06:13:32.952Z,6.07
2019-04-07T06:16:24.720Z,6.07
2019-04-07T06:19:16.069Z,4.63
2019-04-07T06:22:08.397Z,4.80
2019-04-07T06:25:00.763Z,7.17
2019-04-07T06:27:51.786Z,4.93
2019-04-07T06:30:42.800Z,4.43
2019-04-07T06:33:36.671Z,8.03
2019-04-07T06:36:26.814Z,4.23
2019-04-07T06:39:18.881Z,7.47
2019-04-07T06:42:08.720Z,3.87
2019-04-07T06:45:00.330Z,7.07
2019-04-07T06:47:53.679Z,4.30
2019-04-07T06:50:56.907Z,6.50
2019-04-07T06:54:05.853Z,5.80
2019-04-07T06:57:12.924Z,4.90
2019-04-07T07:00:23.845Z,4.93
2019-04-07T07:03:36.010Z,3.97
2019-04-07T07:06:38.661Z,4.63
2019-04-07T07:09:39.901Z,5.80
2019-04-07T07:12:48.109Z,5.20
2019-04-07T07:16:07.850Z,8.50
2019-04-07T07:19:26.244Z,6.13
2019-04-07T07:22:17.480Z,6.83
2019-04-07T07:25:11.255Z,7.50
2019-04-07T07:28:01.679Z,7.10
2019-04-07T07:30:53.374Z,4.97
2019-04-07T07:33:44.736Z,7.00
2019-04-07T07:36:35.057Z,4.63
2019-04-07T07:39:25.220Z,5.13
2019-04-07T07:42:15.761Z,4.63
2019-04-07T07:45:10.740Z,4.97
2019-04-07T07:47:57.754Z,5.50
2019-04-07T07:50:48.801Z,9.63
2019-04-07T07:53:39.408Z,4.30
2019-04-07T07:56:31.279Z,6.80
2019-04-07T07:59:22.880Z,7.53
2019-04-07T08:02:17.404Z,4.83
2019-04-07T08:05:07.150Z,4.20
2019-04-07T08:07:58.500Z,5.27
2019-04-07T08:10:49.083Z,4.13
2019-04-07T08:13:43.952Z,4.33
2019-04-07T08:16:32.500Z,4.37
2019-04-07T08:19:27.323Z,11.20
2019-04-07T08:22:26.500Z,3.70
2019-04-07T08:25:08.707Z,3.52
2019-04-07T08:28:02.167Z,3.53
2019-04-07T08:30:52.626Z,4.00
2019-04-07T08:33:43.517Z,5.47
2019-04-07T08:36:34.787Z,4.20
2019-04-07T08:39:29.081Z,4.50
2019-04-07T08:42:18.671Z,5.33
2019-04-07T08:45:10.200Z,3.63
2019-04-07T08:48:01.046Z,4.83
2019-04-07T08:50:51.869Z,3.30
2019-04-07T08:53:44.054Z,5.73
2019-04-07T08:56:34.340Z,6.60
2019-04-07T08:59:25.949Z,3.73
2019-04-07T09:02:18.841Z,3.07
2019-04-07T09:05:07.920Z,3.47
2019-04-07T09:07:59.442Z,3.13
2019-04-07T09:11:12.947Z,4.23
2019-04-07T09:14:06.044Z,3.10
2019-04-07T09:17:23.271Z,3.87
2019-04-07T09:20:31.351Z,3.60
2019-04-07T09:23:36.080Z,3.77
2019-04-07T09:26:52.425Z,3.43
2019-04-07T09:30:05.490Z,3.70
2019-04-07T09:33:37.721Z,4.13
2019-04-07T09:36:50.122Z,4.33
2019-04-07T09:40:07.542Z,8.40
2019-04-07T09:43:16.845Z,2.12
2019-04-07T09:46:24.918Z,3.23
2019-04-07T09:49:37.859Z,3.37
2019-04-07T09:52:49.288Z,2.07
2019-04-07T09:56:06.645Z,1.80
2019-04-07T09:59:19.246Z,2.20
2019-04-07T10:02:34.469Z,6.30
2019-04-07T10:05:52.739Z,7.17
2019-04-07T10:09:05.522Z,1.20
2019-04-07T10:12:15.144Z,3.47
2019-04-07T10:15:38.642Z,2.37
2019-04-07T10:18:46.840Z,3.35
2019-04-07T10:21:56.711Z,2.45
2019-04-07T10:25:09.241Z,1.40
2019-04-07T10:28:08.907Z,4.55
2019-04-07T10:31:20.994Z,1.20
2019-04-07T10:34:29.881Z,1.77
2019-04-07T10:37:42.806Z,1.65
2019-04-07T10:40:40.270Z,2.08
2019-04-07T10:43:39.351Z,2.17
2019-04-07T10:46:37.860Z,2.05
2019-04-07T10:49:41.220Z,1.12
2019-04-07T10:52:56.186Z,1.60
2019-04-07T10:56:08.881Z,1.45
2019-04-07T10:59:30.823Z,2.67
2019-04-07T11:02:39.341Z,1.90
2019-04-07T11:05:54.933Z,2.50
2019-04-07T11:09:03.799Z,1.67
2019-04-07T11:12:23.227Z,1.30
2019-04-07T11:15:33.022Z,1.47
2019-04-07T11:18:54.958Z,2.02
2019-04-07T11:22:14.412Z,1.70
2019-04-07T11:25:28.406Z,6.78
2019-04-07T11:28:30.637Z,3.50
2019-04-07T11:31:49.560Z,3.70
2019-04-07T11:34:59.528Z,1.67
2019-04-07T11:38:08.148Z,1.65
2019-04-07T11:41:23.465Z,1.70
2019-04-07T11:44:19.921Z,2.15
2019-04-07T11:47:19.784Z,1.72
2019-04-07T11:50:19.940Z,3.83
2019-04-07T11:53:21.400Z,1.67
2019-04-07T11:56:30.776Z,2.52
2019-04-07T11:59:39.600Z,4.00
2019-04-07T12:02:54.374Z,1.70
2019-04-07T12:05:59.794Z,2.83
2019-04-07T12:09:12.026Z,1.72
2019-04-07T12:12:26.607Z,1.85
2019-04-07T12:15:36.720Z,1.70
2019-04-07T12:18:40.728Z,2.85
2019-04-07T12:21:38.581Z,1.47
2019-04-07T12:24:49.109Z,1.67
2019-04-07T12:28:17.587Z,2.12
2019-04-07T12:31:22.709Z,1.80
2019-04-07T12:34:43.983Z,3.25
2019-04-07T12:37:48.829Z,4.28
2019-04-07T12:40:56.362Z,1.50
2019-04-07T12:44:04.401Z,7.25
2019-04-07T12:47:20.122Z,2.58
2019-04-07T12:50:16.646Z,4.37
2019-04-07T12:53:21.901Z,1.75
2019-04-07T12:56:23.104Z,2.40
2019-04-07T12:59:30.769Z,2.10
2019-04-07T13:02:42.452Z,3.15
2019-04-07T13:05:54.128Z,1.82
2019-04-07T13:09:10.339Z,6.33
2019-04-07T13:12:22.339Z,3.20
2019-04-07T13:15:35.481Z,2.05
2019-04-07T13:18:39.802Z,2.87
2019-04-07T13:21:36.039Z,3.40
2019-04-07T13:24:59.235Z,3.70
2019-04-07T13:28:11.281Z,4.00
2019-04-07T13:31:30.312Z,5.33
2019-04-07T13:34:42.341Z,5.03
2019-04-07T13:38:01.216Z,4.40
2019-04-07T13:41:10.501Z,3.98
2019-04-07T13:44:17.221Z,19.17
2019-04-07T13:47:38.777Z,6.65
2019-04-07T13:50:49.206Z,5.12
2019-04-07T13:54:11.070Z,7.90
2019-04-07T13:57:30.673Z,4.40
2019-04-07T14:00:42.658Z,2.60
2019-04-07T14:03:49.447Z,1.25
2019-04-07T14:07:01.327Z,3.10
2019-04-07T14:10:22.648Z,2.27
2019-04-07T14:13:40.415Z,3.50
2019-04-07T14:16:46.453Z,2.85
2019-04-07T14:19:48.770Z,2.80
2019-04-07T14:23:01.087Z,3.95
2019-04-07T14:26:00.120Z,2.05
2019-04-07T14:29:24.617Z,3.55
2019-04-07T14:32:24.121Z,7.17
2019-04-07T14:35:39.440Z,2.67
2019-04-07T14:38:41.292Z,4.75
2019-04-07T14:42:03.940Z,4.78
2019-04-07T14:45:06.725Z,6.00
2019-04-07T14:48:13.314Z,5.45
2019-04-07T14:51:42.657Z,2.77
2019-04-07T14:54:57.098Z,6.42
2019-04-07T14:58:02.821Z,6.10
2019-04-07T15:01:12.657Z,4.35
2019-04-07T15:04:04.316Z,3.50
2019-04-07T15:07:24.740Z,3.17
2019-04-07T15:10:22.680Z,4.30
2019-04-07T15:13:15.990Z,2.70
2019-04-07T15:16:06.481Z,2.98
2019-04-07T15:18:58.569Z,3.20
2019-04-07T15:21:53.038Z,4.22
2019-04-07T15:24:42.860Z,3.80
2019-04-07T15:27:33.725Z,4.50
2019-04-07T15:30:24.315Z,7.83
2019-04-07T15:33:15.705Z,3.80
2019-04-07T15:36:08.300Z,3.47
2019-04-07T15:38:58.646Z,3.62
2019-04-07T15:41:50.971Z,5.47
2019-04-07T15:44:42.472Z,4.33
2019-04-07T15:47:33.401Z,4.60
2019-04-07T15:50:24.730Z,4.03
2019-04-07T15:53:15.576Z,4.22
2019-04-07T15:56:08.238Z,5.40
2019-04-07T15:59:00.733Z,3.95
2019-04-07T16:01:50.559Z,3.60
2019-04-07T16:04:41.801Z,2.90
2019-04-07T16:07:33.639Z,3.75
2019-04-07T16:10:26.101Z,4.30
2019-04-07T16:13:17.390Z,3.67
2019-04-07T16:16:10.001Z,4.03
2019-04-07T16:19:01.205Z,6.72
2019-04-07T16:21:52.420Z,3.70
2019-04-07T16:24:42.643Z,8.60
2019-04-07T16:27:36.575Z,6.12
2019-04-07T16:30:24.842Z,3.73
2019-04-07T16:33:16.350Z,5.15
2019-04-07T16:36:07.480Z,5.60
2019-04-07T16:39:00.387Z,7.70
2019-04-07T16:41:53.400Z,3.95
2019-04-07T16:44:44.625Z,4.15
2019-04-07T16:47:37.445Z,4.23
2019-04-07T16:50:28.279Z,2.80
2019-04-07T16:53:18.960Z,3.40
2019-04-07T16:56:09.381Z,5.33
2019-04-07T16:59:01.409Z,3.23
2019-04-07T17:01:52.954Z,3.00
2019-04-07T17:04:43.401Z,7.03
2019-04-07T17:07:33.986Z,3.60
2019-04-07T17:10:28.755Z,7.07
2019-04-07T17:13:23.842Z,3.80
2019-04-07T17:16:11.586Z,3.27
2019-04-07T17:19:02.075Z,3.67
2019-04-07T17:21:53.425Z,3.93
2019-04-07T17:24:44.219Z,4.77
2019-04-07T17:27:35.328Z,3.90
2019-04-07T17:30:28.065Z,4.17
2019-04-07T17:33:20.896Z,5.17
2019-04-07T17:36:15.397Z,5.23
2019-04-07T17:39:22.862Z,6.23
2019-04-07T17:42:15.652Z,4.60
2019-04-07T17:45:24.919Z,3.90
2019-04-07T17:48:47.581Z,4.63
2019-04-07T17:51:51.539Z,4.57
2019-04-07T17:55:12.709Z,5.10
2019-04-07T17:58:25.184Z,5.47
2019-04-07T18:01:44.144Z,4.50
2019-04-07T18:04:53.704Z,5.77
2019-04-07T18:08:03.399Z,9.57
2019-04-07T18:11:15.615Z,4.80
2019-04-07T18:14:35.041Z,5.80
2019-04-07T18:17:49.875Z,5.60
2019-04-07T18:21:11.690Z,4.93
2019-04-07T18:24:18.088Z,4.20
2019-04-07T18:27:17.789Z,5.70
2019-04-07T18:30:30.476Z,8.17
2019-04-07T18:33:50.737Z,7.77
2019-04-07T18:37:14.800Z,7.10
2019-04-07T18:40:29.574Z,6.07
2019-04-07T18:43:28.994Z,7.97
2019-04-07T18:46:41.104Z,6.40
2019-04-07T18:50:07.172Z,5.97
2019-04-07T18:53:16.697Z,6.27
2019-04-07T18:56:32.681Z,6.70
2019-04-07T18:59:55.405Z,7.57
2019-04-07T19:02:49.300Z,5.10
2019-04-07T19:05:59.351Z,4.53
2019-04-07T19:08:59.890Z,6.13
2019-04-07T19:12:16.708Z,5.37
2019-04-07T19:15:23.041Z,5.97
2019-04-07T19:18:35.469Z,6.80
2019-04-07T19:22:00.461Z,6.90
2019-04-07T19:25:17.184Z,6.17
2019-04-07T19:28:33.819Z,11.20
2019-04-07T19:31:50.678Z,5.07
2019-04-07T19:35:16.890Z,7.63
2019-04-07T19:38:43.939Z,6.40
2019-04-07T19:41:54.040Z,6.07
2019-04-07T19:45:09.231Z,10.03
2019-04-07T19:48:28.808Z,8.23
2019-04-07T19:51:39.508Z,16.23
2019-04-07T19:55:01.511Z,5.37
2019-04-07T19:58:35.023Z,7.70
2019-04-07T20:01:52.628Z,7.73
2019-04-07T20:05:01.270Z,5.57
2019-04-07T20:08:22.901Z,7.27
2019-04-07T20:11:35.767Z,8.63
2019-04-07T20:14:49.300Z,9.50
2019-04-07T20:17:52.718Z,9.70
2019-04-07T20:21:17.621Z,8.77
2019-04-07T20:24:36.704Z,11.03
2019-04-07T20:27:44.864Z,17.77
2019-04-07T20:30:54.164Z,10.47
2019-04-07T20:33:57.220Z,9.07
2019-04-07T20:36:59.802Z,7.30
2019-04-07T20:40:12.260Z,8.47
2019-04-07T20:43:12.254Z,7.83
2019-04-07T20:46:36.780Z,9.10
2019-04-07T20:49:56.933Z,6.53
2019-04-07T20:53:17.349Z,11.93
2019-04-07T20:56:33.190Z,7.50
2019-04-07T20:59:49.419Z,9.97
2019-04-07T21:02:41.242Z,10.70
2019-04-07T21:05:54.468Z,10.33
2019-04-07T21:09:03.616Z,7.63
2019-04-07T21:12:06.500Z,6.93
2019-04-07T21:15:26.048Z,9.30
2019-04-07T21:18:32.808Z,7.57
2019-04-07T21:21:46.241Z,10.70
2019-04-07T21:24:55.198Z,28.37
2019-04-07T21:27:53.400Z,40.83
2019-04-07T21:31:05.566Z,17.33
2019-04-07T21:34:20.901Z,25.00
2019-04-07T21:37:29.061Z,22.93
2019-04-07T21:40:44.308Z,22.13
2019-04-07T21:43:58.251Z,15.47
2019-04-07T21:47:08.373Z,13.67
2019-04-07T21:50:15.153Z,19.73
2019-04-07T21:53:28.835Z,15.17
2019-04-07T21:56:34.841Z,11.23
2019-04-07T21:59:46.489Z,13.10
2019-04-07T22:02:48.323Z,10.87
2019-04-07T22:06:10.976Z,7.33
2019-04-07T22:09:06.854Z,7.40
2019-04-07T22:11:58.071Z,7.30
2019-04-07T22:14:48.320Z,9.53
2019-04-07T22:17:39.354Z,8.90
2019-04-07T22:20:30.164Z,10.30
2019-04-07T22:23:21.465Z,9.27
2019-04-07T22:26:16.401Z,8.43
2019-04-07T22:29:04.580Z,9.03
2019-04-07T22:31:57.767Z,11.53
2019-04-07T22:34:48.218Z,12.53
2019-04-07T22:37:39.914Z,10.00
2019-04-07T22:40:34.227Z,8.50
2019-04-07T22:43:24.814Z,8.63
2019-04-07T22:46:21.163Z,7.73
2019-04-07T22:49:09.233Z,10.43
2019-04-07T22:52:00.081Z,7.23
2019-04-07T22:54:50.601Z,10.53
2019-04-07T22:57:41.091Z,8.63
2019-04-07T23:00:32.420Z,11.73
2019-04-07T23:03:24.002Z,9.73
2019-04-07T23:06:14.800Z,8.67
2019-04-07T23:09:06.328Z,10.57
2019-04-07T23:11:56.880Z,9.17
2019-04-07T23:14:47.659Z,7.93
2019-04-07T23:17:39.767Z,8.03
2019-04-07T23:20:31.226Z,8.93
2019-04-07T23:23:21.960Z,12.20
2019-04-07T23:26:11.921Z,10.20
2019-04-07T23:29:03.704Z,8.30
2019-04-07T23:31:53.472Z,17.20
2019-04-07T23:34:43.923Z,11.47
2019-04-07T23:37:35.140Z,13.67
2019-04-07T23:40:26.645Z,10.63
2019-04-07T23:43:17.350Z,10.07
2019-04-07T23:46:19.578Z,9.43
2019-04-07T23:49:00.080Z,12.33
2019-04-07T23:51:51.061Z,9.67
2019-04-07T23:54:41.735Z,9.23
2019-04-07T23:57:32.600Z,9.33
